Time;durP1;ratioP1;P1;durP2;ratioP2;P2;SDS_P1;SDS_P2;PMS_P1;PMS_P2;Temp;Humidity;BMP_temperature;BMP_pressure;BME280_temperature;BME280_humidity;BME280_pressure;Samples;Min_cycle;Max_cycle;Signal;HPM_P1;HPM_P2
2021/12/31 00:00:16;;;;;;;;;;;15.40;56.00;;;;;;5076016;28;20012;-61
2021/12/31 00:02:42;;;;;;;;;;;15.40;55.90;;;;;;5094204;28;19908;-61
2021/12/31 00:05:08;;;;;;;;;;;15.40;55.90;;;;;;5094205;28;19912;-61
2021/12/31 00:07:34;;;;;;;;;;;15.40;55.90;;;;;;5093871;28;20268;-61
2021/12/31 00:10:00;;;;;;;;;;;15.40;56.10;;;;;;5075809;28;19912;-61
2021/12/31 00:12:52;;;;;;;;;;;15.40;56.00;;;;;;5093985;28;19961;-61
2021/12/31 00:15:18;;;;;;;;;;;15.40;55.90;;;;;;5090847;28;20097;-61
2021/12/31 00:17:43;;;;;;;;;;;15.30;56.00;;;;;;5093955;28;19909;-61
2021/12/31 00:20:15;;;;;;;;;;;15.40;55.90;;;;;;5093765;28;19908;-61
2021/12/31 00:25:24;;;;;;;;;;;15.40;56.10;;;;;;5093876;28;19977;-60
2021/12/31 00:27:50;;;;;;;;;;;15.30;56.10;;;;;;5093732;28;19912;-60
2021/12/31 00:30:16;;;;;;;;;;;15.30;55.90;;;;;;5093716;28;20000;-61
2021/12/31 00:32:42;;;;;;;;;;;15.30;56.10;;;;;;5093449;28;19908;-60
2021/12/31 00:35:07;;;;;;;;;;;15.30;56.00;;;;;;5093798;28;19908;-60
2021/12/31 00:37:35;;;;;;;;;;;15.30;56.00;;;;;;5093399;28;19942;-60
2021/12/31 00:40:01;;;;;;;;;;;15.30;56.10;;;;;;5093561;28;19915;-60
2021/12/31 00:42:26;;;;;;;;;;;15.40;56.10;;;;;;5093558;28;19934;-60
2021/12/31 00:44:52;;;;;;;;;;;15.30;56.00;;;;;;5093713;28;19908;-60
2021/12/31 00:47:17;;;;;;;;;;;15.30;56.00;;;;;;5093361;28;19959;-60
2021/12/31 00:49:43;;;;;;;;;;;15.30;56.00;;;;;;5093445;28;20020;-60
2021/12/31 00:52:09;;;;;;;;;;;15.40;56.10;;;;;;5095164;28;20383;-60
2021/12/31 00:54:34;;;;;;;;;;;15.30;55.90;;;;;;5097681;28;19935;-60
2021/12/31 00:57:03;;;;;;;;;;;15.30;56.00;;;;;;5097442;28;19923;-60
2021/12/31 00:59:32;;;;;;;;;;;15.30;56.10;;;;;;5097519;28;19912;-60
2021/12/31 01:01:58;;;;;;;;;;;15.30;56.00;;;;;;5097364;28;19978;-60
2021/12/31 01:04:24;;;;;;;;;;;15.30;56.20;;;;;;5097629;28;19908;-61
2021/12/31 01:06:50;;;;;;;;;;;15.30;56.10;;;;;;5079313;28;19961;-60
2021/12/31 01:09:15;;;;;;;;;;;15.30;56.20;;;;;;5097264;28;19908;-61
2021/12/31 01:11:43;;;;;;;;;;;15.30;56.20;;;;;;5097243;28;20291;-61
2021/12/31 01:14:20;;;;;;;;;;;15.30;56.10;;;;;;5097124;28;19912;-61
2021/12/31 01:16:50;;;;;;;;;;;15.30;56.10;;;;;;5097378;28;19908;-61
2021/12/31 01:21:41;;;;;;;;;;;15.30;56.10;;;;;;5097325;28;19908;-61
2021/12/31 01:24:06;;;;;;;;;;;15.30;56.00;;;;;;5096903;28;19908;-61
2021/12/31 01:26:33;;;;;;;;;;;15.30;56.10;;;;;;5096943;28;19916;-61
2021/12/31 01:28:59;;;;;;;;;;;15.30;56.10;;;;;;5097086;28;19919;-61
2021/12/31 01:31:24;;;;;;;;;;;15.30;56.20;;;;;;5096866;28;19908;-61
2021/12/31 01:33:50;;;;;;;;;;;15.30;56.20;;;;;;5097082;28;19908;-61
2021/12/31 01:36:16;;;;;;;;;;;15.30;56.10;;;;;;5096913;28;19958;-61
2021/12/31 01:38:42;;;;;;;;;;;15.30;56.10;;;;;;5096968;28;19952;-61
2021/12/31 01:41:08;;;;;;;;;;;15.30;56.10;;;;;;5096814;28;20028;-61
2021/12/31 01:43:33;;;;;;;;;;;15.30;56.20;;;;;;5096527;28;20420;-61
2021/12/31 01:46:00;;;;;;;;;;;15.30;56.20;;;;;;5096834;28;19920;-61
2021/12/31 01:48:34;;;;;;;;;;;15.30;56.00;;;;;;5096686;28;19908;-61
2021/12/31 01:51:00;;;;;;;;;;;15.30;56.10;;;;;;5096547;28;19931;-61
2021/12/31 01:53:26;;;;;;;;;;;15.30;56.20;;;;;;5096655;28;20317;-61
2021/12/31 01:55:55;;;;;;;;;;;15.30;56.10;;;;;;5096678;28;19909;-61
2021/12/31 01:58:22;;;;;;;;;;;15.30;56.20;;;;;;5096164;28;19970;-61
2021/12/31 02:00:48;;;;;;;;;;;15.30;56.10;;;;;;5096657;28;19908;-61
2021/12/31 02:03:13;;;;;;;;;;;15.30;56.10;;;;;;5096307;28;19916;-61
2021/12/31 02:05:39;;;;;;;;;;;15.30;56.20;;;;;;5096435;28;19916;-61
2021/12/31 02:08:05;;;;;;;;;;;15.30;56.00;;;;;;5096330;28;19908;-61
2021/12/31 02:10:30;;;;;;;;;;;15.30;56.20;;;;;;5096139;28;20003;-61
2021/12/31 02:12:56;;;;;;;;;;;15.30;56.20;;;;;;5077946;28;19909;-61
2021/12/31 02:15:21;;;;;;;;;;;15.30;56.10;;;;;;5096448;28;19908;-61
2021/12/31 02:17:48;;;;;;;;;;;15.30;56.10;;;;;;5096173;28;20363;-61
2021/12/31 02:20:14;;;;;;;;;;;15.30;56.10;;;;;;5095991;28;20294;-61
2021/12/31 02:22:43;;;;;;;;;;;15.30;56.10;;;;;;5096220;28;19908;-61
2021/12/31 02:25:09;;;;;;;;;;;15.30;56.20;;;;;;5095882;28;19959;-60
2021/12/31 02:27:38;;;;;;;;;;;15.30;56.10;;;;;;5096187;28;19943;-60
2021/12/31 02:30:04;;;;;;;;;;;15.30;56.10;;;;;;5095798;28;19915;-60
2021/12/31 02:32:30;;;;;;;;;;;15.30;56.10;;;;;;5095846;28;19917;-60
2021/12/31 02:34:55;;;;;;;;;;;15.30;56.10;;;;;;5095832;28;19912;-61
2021/12/31 02:37:20;;;;;;;;;;;15.30;56.10;;;;;;5095695;28;19908;-60
2021/12/31 02:39:46;;;;;;;;;;;15.30;56.10;;;;;;5095703;28;19908;-61
2021/12/31 02:42:12;;;;;;;;;;;15.30;56.10;;;;;;5095986;28;19995;-60
2021/12/31 02:44:38;;;;;;;;;;;15.30;56.10;;;;;;5095440;28;20192;-60
2021/12/31 02:47:05;;;;;;;;;;;15.30;56.10;;;;;;5095267;28;20185;-60
2021/12/31 02:49:35;;;;;;;;;;;15.30;56.10;;;;;;5095451;28;19914;-60
2021/12/31 02:52:02;;;;;;;;;;;15.30;56.10;;;;;;5095353;28;19908;-60
2021/12/31 02:54:28;;;;;;;;;;;15.30;56.20;;;;;;5095268;28;19908;-61
2021/12/31 02:56:54;;;;;;;;;;;15.30;56.10;;;;;;5095090;28;19916;-61
2021/12/31 02:59:19;;;;;;;;;;;15.30;56.00;;;;;;5095155;28;19909;-60
2021/12/31 03:01:45;;;;;;;;;;;15.20;56.10;;;;;;5095235;28;19960;-60
2021/12/31 03:04:11;;;;;;;;;;;15.30;56.10;;;;;;5095215;28;19908;-60
2021/12/31 03:06:37;;;;;;;;;;;15.30;56.10;;;;;;5095084;28;19916;-60
2021/12/31 03:09:03;;;;;;;;;;;15.30;56.00;;;;;;5076958;28;20011;-60
2021/12/31 03:11:28;;;;;;;;;;;15.30;56.10;;;;;;5094820;28;19994;-60
2021/12/31 03:13:54;;;;;;;;;;;15.30;56.10;;;;;;5094827;28;19952;-60
2021/12/31 03:16:21;;;;;;;;;;;15.30;56.10;;;;;;5094450;28;19991;-61
2021/12/31 03:18:48;;;;;;;;;;;15.30;56.20;;;;;;5094702;28;19908;-60
2021/12/31 03:21:21;;;;;;;;;;;15.30;56.10;;;;;;5094927;28;19915;-60
2021/12/31 03:23:46;;;;;;;;;;;15.30;56.10;;;;;;5094612;28;20333;-60
2021/12/31 03:26:12;;;;;;;;;;;15.30;56.10;;;;;;5094685;28;19916;-60
2021/12/31 03:28:37;;;;;;;;;;;15.30;56.00;;;;;;5094511;28;19908;-60
2021/12/31 03:31:03;;;;;;;;;;;15.20;56.10;;;;;;5094495;28;19908;-60
2021/12/31 03:33:28;;;;;;;;;;;15.20;56.20;;;;;;5094540;28;19912;-61
2021/12/31 03:35:54;;;;;;;;;;;15.20;56.10;;;;;;5094424;28;20003;-60
2021/12/31 03:38:19;;;;;;;;;;;15.20;56.10;;;;;;5094664;28;19912;-60
2021/12/31 03:40:46;;;;;;;;;;;15.30;56.10;;;;;;5094322;28;20378;-60
2021/12/31 03:43:12;;;;;;;;;;;15.20;56.20;;;;;;5094602;28;20283;-60
2021/12/31 03:45:38;;;;;;;;;;;15.30;56.20;;;;;;5094450;28;19916;-60
2021/12/31 03:48:03;;;;;;;;;;;15.30;56.20;;;;;;5094241;28;19987;-61
2021/12/31 03:50:29;;;;;;;;;;;15.20;56.10;;;;;;5094161;28;19908;-60
2021/12/31 03:52:54;;;;;;;;;;;15.30;56.20;;;;;;5094072;28;19912;-60
2021/12/31 03:55:21;;;;;;;;;;;15.20;56.10;;;;;;5094263;28;19909;-60
2021/12/31 03:57:46;;;;;;;;;;;15.20;56.10;;;;;;5094024;28;19920;-60
2021/12/31 04:00:12;;;;;;;;;;;15.20;56.20;;;;;;5094357;28;19908;-60
2021/12/31 04:02:38;;;;;;;;;;;15.20;56.20;;;;;;5094035;28;19908;-60
2021/12/31 04:05:03;;;;;;;;;;;15.20;56.20;;;;;;5093869;28;20279;-61
2021/12/31 04:07:29;;;;;;;;;;;15.20;56.10;;;;;;5093868;28;20260;-60
2021/12/31 04:09:54;;;;;;;;;;;15.20;56.20;;;;;;5094016;28;19915;-61
2021/12/31 04:12:20;;;;;;;;;;;15.20;56.20;;;;;;5093978;28;19908;-60
2021/12/31 04:14:45;;;;;;;;;;;15.20;56.20;;;;;;5093873;28;19908;-61
2021/12/31 04:17:11;;;;;;;;;;;15.20;56.20;;;;;;5094089;28;19908;-60
2021/12/31 04:19:36;;;;;;;;;;;15.20;56.20;;;;;;5075624;28;19915;-60
2021/12/31 04:22:02;;;;;;;;;;;15.20;56.20;;;;;;5093637;28;19955;-60
2021/12/31 04:24:52;;;;;;;;;;;15.20;56.20;;;;;;5093910;28;19954;-60
2021/12/31 04:27:16;;;;;;;;;;;15.20;56.10;;;;;;5092628;28;20489;-61
2021/12/31 04:29:49;;;;;;;;;;;15.20;56.20;;;;;;5093675;28;19908;-60
2021/12/31 04:32:14;;;;;;;;;;;15.20;56.10;;;;;;5093608;28;19969;-60
2021/12/31 04:34:39;;;;;;;;;;;15.20;56.20;;;;;;5093612;28;19908;-60
2021/12/31 04:37:05;;;;;;;;;;;15.20;56.20;;;;;;5093584;28;19931;-60
2021/12/31 04:39:30;;;;;;;;;;;15.20;56.20;;;;;;5093372;28;20440;-60
2021/12/31 04:41:56;;;;;;;;;;;15.20;56.20;;;;;;5093588;28;19916;-60
2021/12/31 04:44:21;;;;;;;;;;;15.20;56.20;;;;;;5075368;28;19915;-61
2021/12/31 04:46:47;;;;;;;;;;;15.20;56.20;;;;;;5093542;28;19916;-60
2021/12/31 04:49:12;;;;;;;;;;;15.20;56.20;;;;;;5093414;28;19960;-60
2021/12/31 04:51:37;;;;;;;;;;;15.20;56.30;;;;;;5093526;28;20073;-60
2021/12/31 04:54:03;;;;;;;;;;;15.20;56.20;;;;;;5093495;28;19954;-60
2021/12/31 04:56:28;;;;;;;;;;;15.20;56.20;;;;;;5093380;28;19919;-60
2021/12/31 04:58:54;;;;;;;;;;;15.20;56.20;;;;;;5075324;28;20290;-60
2021/12/31 05:01:21;;;;;;;;;;;15.20;56.20;;;;;;5093280;28;19915;-60
2021/12/31 05:03:50;;;;;;;;;;;15.20;56.20;;;;;;5093121;28;20360;-60
2021/12/31 05:06:15;;;;;;;;;;;15.20;56.20;;;;;;5093198;28;19916;-60
2021/12/31 05:08:41;;;;;;;;;;;15.20;56.20;;;;;;5075115;28;19989;-61
2021/12/31 05:11:06;;;;;;;;;;;15.20;56.30;;;;;;5093451;28;19908;-61
2021/12/31 05:13:32;;;;;;;;;;;15.20;56.20;;;;;;5093500;28;19962;-60
2021/12/31 05:16:02;;;;;;;;;;;15.20;56.30;;;;;;5093087;28;20410;-60
2021/12/31 05:18:28;;;;;;;;;;;15.20;56.30;;;;;;5093378;28;19943;-60
2021/12/31 05:20:53;;;;;;;;;;;15.20;56.20;;;;;;5093431;28;19908;-60
2021/12/31 05:23:19;;;;;;;;;;;15.20;56.20;;;;;;5093096;28;19908;-60
2021/12/31 05:25:44;;;;;;;;;;;15.20;56.20;;;;;;5093160;28;19916;-60
2021/12/31 05:28:10;;;;;;;;;;;15.20;56.20;;;;;;5075010;28;20394;-61
2021/12/31 05:30:35;;;;;;;;;;;15.20;56.20;;;;;;5093103;28;19908;-61
2021/12/31 05:33:01;;;;;;;;;;;15.20;56.20;;;;;;5092987;28;19912;-61
2021/12/31 05:35:26;;;;;;;;;;;15.20;56.20;;;;;;5093238;28;19908;-61
2021/12/31 05:37:52;;;;;;;;;;;15.20;56.30;;;;;;5094018;28;19908;-61
2021/12/31 05:40:18;;;;;;;;;;;15.20;56.30;;;;;;5096700;28;20374;-61
2021/12/31 05:42:43;;;;;;;;;;;15.20;56.10;;;;;;5096797;28;19908;-61
2021/12/31 05:45:09;;;;;;;;;;;15.20;56.20;;;;;;5096541;28;20309;-61
2021/12/31 05:47:35;;;;;;;;;;;15.20;56.30;;;;;;5096904;28;20010;-61
2021/12/31 05:50:04;;;;;;;;;;;15.20;56.20;;;;;;5096523;28;20013;-61
2021/12/31 05:52:29;;;;;;;;;;;15.20;56.30;;;;;;5096486;28;19961;-61
2021/12/31 05:54:55;;;;;;;;;;;15.10;56.20;;;;;;5096745;28;19908;-61
2021/12/31 05:57:20;;;;;;;;;;;15.20;56.30;;;;;;5096133;28;19920;-61
2021/12/31 05:59:45;;;;;;;;;;;15.10;56.30;;;;;;5096319;28;19931;-61
2021/12/31 06:02:11;;;;;;;;;;;15.10;56.20;;;;;;5096654;28;20267;-61
2021/12/31 06:04:37;;;;;;;;;;;15.20;56.40;;;;;;5096404;28;20437;-61
2021/12/31 06:07:03;;;;;;;;;;;15.10;56.30;;;;;;5096261;28;19923;-61
2021/12/31 06:09:30;;;;;;;;;;;15.10;56.30;;;;;;5096114;28;19912;-61
2021/12/31 06:11:56;;;;;;;;;;;15.10;56.30;;;;;;5096480;28;20344;-61
2021/12/31 06:14:21;;;;;;;;;;;15.10;56.30;;;;;;5096093;28;19990;-61
2021/12/31 06:16:48;;;;;;;;;;;15.10;56.30;;;;;;5096031;28;19919;-61
2021/12/31 06:19:13;;;;;;;;;;;15.10;56.30;;;;;;5077823;28;19907;-61
2021/12/31 06:21:39;;;;;;;;;;;15.10;56.30;;;;;;5077924;28;20344;-61
2021/12/31 06:24:05;;;;;;;;;;;15.10;56.40;;;;;;5095892;28;19912;-61
2021/12/31 06:26:31;;;;;;;;;;;15.20;56.30;;;;;;5095724;28;19970;-61
2021/12/31 06:28:56;;;;;;;;;;;15.10;56.40;;;;;;5095823;28;19915;-61
2021/12/31 06:31:22;;;;;;;;;;;15.10;56.30;;;;;;5096169;28;20046;-61
2021/12/31 06:33:47;;;;;;;;;;;15.10;56.40;;;;;;5095689;28;19908;-61
2021/12/31 06:36:13;;;;;;;;;;;15.10;56.40;;;;;;5095779;28;19998;-61
2021/12/31 06:38:38;;;;;;;;;;;15.10;56.40;;;;;;5095518;28;20283;-61
2021/12/31 06:41:04;;;;;;;;;;;15.10;56.40;;;;;;5095513;28;19908;-61
2021/12/31 06:43:29;;;;;;;;;;;15.10;56.40;;;;;;5095376;28;20356;-61
2021/12/31 06:45:55;;;;;;;;;;;15.10;56.40;;;;;;5095354;28;19982;-61
2021/12/31 06:48:20;;;;;;;;;;;15.10;56.40;;;;;;5095247;28;19961;-61
2021/12/31 06:50:45;;;;;;;;;;;15.10;56.40;;;;;;5094495;28;19915;-61
2021/12/31 06:53:11;;;;;;;;;;;15.10;56.50;;;;;;5095532;28;19909;-61
2021/12/31 06:55:36;;;;;;;;;;;15.10;56.40;;;;;;5095146;28;19915;-61
2021/12/31 06:58:02;;;;;;;;;;;15.10;56.50;;;;;;5094872;28;20428;-61
2021/12/31 07:00:27;;;;;;;;;;;15.10;56.40;;;;;;5095324;28;20372;-61
2021/12/31 07:03:06;;;;;;;;;;;15.10;56.40;;;;;;5095164;28;19908;-61
2021/12/31 07:05:31;;;;;;;;;;;15.10;56.50;;;;;;5095071;28;20360;-61
2021/12/31 07:07:57;;;;;;;;;;;15.10;56.40;;;;;;5094944;28;19947;-61
2021/12/31 07:10:22;;;;;;;;;;;15.10;56.50;;;;;;5095199;28;19956;-61
2021/12/31 07:12:48;;;;;;;;;;;15.10;56.50;;;;;;5095051;28;20379;-61
2021/12/31 07:15:13;;;;;;;;;;;15.10;56.60;;;;;;5095070;28;19930;-61
2021/12/31 07:17:38;;;;;;;;;;;15.10;56.40;;;;;;5094895;28;19955;-61
2021/12/31 07:20:04;;;;;;;;;;;15.10;56.50;;;;;;5076513;28;19908;-61
2021/12/31 07:22:32;;;;;;;;;;;15.10;56.50;;;;;;5094640;28;19909;-61
2021/12/31 07:24:58;;;;;;;;;;;15.10;56.50;;;;;;5094567;28;20034;-61
2021/12/31 07:27:23;;;;;;;;;;;15.10;56.50;;;;;;5094723;28;20011;-61
2021/12/31 07:29:48;;;;;;;;;;;15.10;56.60;;;;;;5094557;28;19908;-61
2021/12/31 07:32:14;;;;;;;;;;;15.10;56.40;;;;;;5094472;28;19915;-61
2021/12/31 07:34:39;;;;;;;;;;;15.10;56.50;;;;;;5094468;28;19908;-61
2021/12/31 07:37:05;;;;;;;;;;;15.10;56.50;;;;;;5076236;28;20367;-61
2021/12/31 07:39:32;;;;;;;;;;;15.10;56.50;;;;;;5094650;28;20374;-61
2021/12/31 07:41:58;;;;;;;;;;;15.10;56.60;;;;;;5094247;28;19908;-61
2021/12/31 07:44:23;;;;;;;;;;;15.10;56.50;;;;;;5094223;28;19915;-61
2021/12/31 07:46:49;;;;;;;;;;;15.10;56.60;;;;;;5094293;28;19959;-61
2021/12/31 07:49:14;;;;;;;;;;;15.10;56.60;;;;;;5094135;28;19915;-61
2021/12/31 07:51:40;;;;;;;;;;;15.10;56.60;;;;;;5094145;28;19908;-61
2021/12/31 07:54:05;;;;;;;;;;;15.10;56.60;;;;;;5094450;28;20010;-61
2021/12/31 07:56:30;;;;;;;;;;;15.00;56.40;;;;;;5093864;28;19915;-61
2021/12/31 07:58:56;;;;;;;;;;;15.00;56.60;;;;;;5094029;28;20275;-61
2021/12/31 08:01:21;;;;;;;;;;;15.10;56.50;;;;;;5094070;28;20359;-62
2021/12/31 08:03:47;;;;;;;;;;;15.00;56.50;;;;;;5094225;28;20355;-61
2021/12/31 08:06:12;;;;;;;;;;;15.00;56.50;;;;;;5094161;28;20275;-61
2021/12/31 08:08:38;;;;;;;;;;;15.00;56.60;;;;;;5093829;28;19912;-61
2021/12/31 08:11:03;;;;;;;;;;;15.00;56.60;;;;;;5093953;28;19909;-61
2021/12/31 08:13:29;;;;;;;;;;;15.10;56.60;;;;;;5093598;28;19915;-61
2021/12/31 08:15:54;;;;;;;;;;;15.00;56.60;;;;;;5093757;28;20003;-61
2021/12/31 08:18:20;;;;;;;;;;;15.10;56.60;;;;;;5093737;28;20020;-61
2021/12/31 08:20:45;;;;;;;;;;;15.00;56.50;;;;;;5093684;28;19999;-61
2021/12/31 08:23:12;;;;;;;;;;;15.00;56.70;;;;;;5075347;28;20004;-61
2021/12/31 08:25:38;;;;;;;;;;;15.10;56.70;;;;;;5093668;28;19930;-61
2021/12/31 08:28:03;;;;;;;;;;;15.00;56.60;;;;;;5093634;28;19912;-61
2021/12/31 08:30:29;;;;;;;;;;;15.00;56.50;;;;;;5075402;28;20393;-61
2021/12/31 08:32:55;;;;;;;;;;;15.00;56.60;;;;;;5093803;28;19955;-60
2021/12/31 08:35:20;;;;;;;;;;;15.00;56.50;;;;;;5093894;28;19908;-60
2021/12/31 08:37:45;;;;;;;;;;;15.00;56.60;;;;;;5093499;28;19915;-61
2021/12/31 08:40:11;;;;;;;;;;;15.00;56.70;;;;;;5093331;28;19912;-59
2021/12/31 08:42:38;;;;;;;;;;;15.00;56.60;;;;;;5093720;28;20003;-60
2021/12/31 08:45:04;;;;;;;;;;;15.10;56.70;;;;;;5093301;28;19908;-60
2021/12/31 08:47:29;;;;;;;;;;;15.00;56.60;;;;;;5093176;28;19916;-60
2021/12/31 08:49:55;;;;;;;;;;;15.00;56.70;;;;;;5093781;28;19942;-60
2021/12/31 08:52:20;;;;;;;;;;;15.00;56.70;;;;;;5093353;28;20287;-60
2021/12/31 08:54:46;;;;;;;;;;;15.00;56.70;;;;;;5093190;28;19908;-60
2021/12/31 08:57:11;;;;;;;;;;;15.00;56.70;;;;;;5093061;28;20017;-60
2021/12/31 08:59:37;;;;;;;;;;;15.00;56.70;;;;;;5093442;28;19908;-60
2021/12/31 09:02:02;;;;;;;;;;;15.00;56.60;;;;;;5075067;28;19908;-60
2021/12/31 09:04:28;;;;;;;;;;;15.00;56.70;;;;;;5093037;28;19960;-61
2021/12/31 09:06:53;;;;;;;;;;;15.00;56.70;;;;;;5092964;28;20007;-60
2021/12/31 09:09:18;;;;;;;;;;;15.10;56.60;;;;;;5093063;28;19912;-60
2021/12/31 09:11:44;;;;;;;;;;;15.10;56.70;;;;;;5093197;28;19908;-60
2021/12/31 09:14:11;;;;;;;;;;;15.00;56.60;;;;;;5096255;28;19958;-60
2021/12/31 09:16:36;;;;;;;;;;;15.10;56.70;;;;;;5097330;28;20020;-60
2021/12/31 09:19:02;;;;;;;;;;;15.10;56.70;;;;;;5097000;28;19937;-60
2021/12/31 09:21:27;;;;;;;;;;;15.10;56.60;;;;;;5097024;28;19923;-60
2021/12/31 09:23:52;;;;;;;;;;;15.10;56.70;;;;;;5096725;28;19908;-60
2021/12/31 09:26:18;;;;;;;;;;;15.10;56.70;;;;;;5096921;28;19943;-60
2021/12/31 09:28:43;;;;;;;;;;;15.10;56.70;;;;;;5096955;28;20359;-60
2021/12/31 09:31:09;;;;;;;;;;;15.10;56.70;;;;;;5096860;28;20359;-60
2021/12/31 09:33:35;;;;;;;;;;;15.10;56.60;;;;;;5096745;28;20275;-59
2021/12/31 09:36:00;;;;;;;;;;;15.10;56.70;;;;;;5096653;28;20352;-60
2021/12/31 09:38:26;;;;;;;;;;;15.10;56.70;;;;;;5096598;28;19908;-60
2021/12/31 09:40:53;;;;;;;;;;;15.10;56.80;;;;;;5096543;28;19915;-59
2021/12/31 09:43:19;;;;;;;;;;;15.10;56.70;;;;;;5096627;28;20008;-60
2021/12/31 09:45:47;;;;;;;;;;;15.10;56.80;;;;;;5096429;28;19916;-60
2021/12/31 09:48:14;;;;;;;;;;;15.10;56.80;;;;;;5096893;28;19918;-60
2021/12/31 09:50:43;;;;;;;;;;;15.10;56.80;;;;;;5096474;28;19951;-60
2021/12/31 09:53:09;;;;;;;;;;;15.10;56.80;;;;;;5096288;28;19977;-60
2021/12/31 09:55:35;;;;;;;;;;;15.10;56.80;;;;;;5096572;28;19912;-59
2021/12/31 09:58:01;;;;;;;;;;;15.00;56.80;;;;;;5096083;28;20004;-59
2021/12/31 10:00:27;;;;;;;;;;;15.10;56.90;;;;;;5096051;28;19940;-60
2021/12/31 10:03:08;;;;;;;;;;;15.10;56.70;;;;;;5078186;28;19954;-60
2021/12/31 10:05:44;;;;;;;;;;;15.10;56.80;;;;;;5095766;28;20348;-60
2021/12/31 10:08:16;;;;;;;;;;;15.10;56.80;;;;;;5096090;28;19912;-60
2021/12/31 10:10:42;;;;;;;;;;;15.10;56.90;;;;;;5095962;28;20317;-60
2021/12/31 10:13:07;;;;;;;;;;;15.10;56.80;;;;;;5095834;28;19989;-60
2021/12/31 10:15:40;;;;;;;;;;;15.10;56.80;;;;;;5095797;28;19947;-60
2021/12/31 10:18:12;;;;;;;;;;;15.10;56.80;;;;;;5095744;28;19975;-60
2021/12/31 10:20:50;;;;;;;;;;;15.20;56.70;;;;;;5095867;28;20370;-60
2021/12/31 10:23:16;;;;;;;;;;;15.10;56.80;;;;;;5095822;28;19969;-60
2021/12/31 10:25:42;;;;;;;;;;;15.10;56.80;;;;;;5094453;28;19916;-60
2021/12/31 10:28:09;;;;;;;;;;;15.10;56.70;;;;;;5095756;28;19915;-60
2021/12/31 10:30:35;;;;;;;;;;;15.10;56.80;;;;;;5095701;28;20004;-60
2021/12/31 10:33:00;;;;;;;;;;;15.10;56.80;;;;;;5095657;28;19909;-60
2021/12/31 10:35:25;;;;;;;;;;;15.10;56.60;;;;;;5095680;28;19908;-59
2021/12/31 10:37:58;;;;;;;;;;;15.10;56.80;;;;;;5095650;28;19909;-60
2021/12/31 10:40:25;;;;;;;;;;;15.10;56.80;;;;;;5077379;28;20435;-60
2021/12/31 10:43:04;;;;;;;;;;;15.20;56.80;;;;;;5095797;28;19908;-63
2021/12/31 10:45:30;;;;;;;;;;;15.10;56.80;;;;;;5095364;28;19915;-59
2021/12/31 10:48:04;;;;;;;;;;;15.10;56.80;;;;;;5095277;28;19909;-60
2021/12/31 10:50:32;;;;;;;;;;;15.20;56.80;;;;;;5095268;28;19912;-60
2021/12/31 10:53:02;;;;;;;;;;;15.10;56.80;;;;;;5095338;28;19916;-59
2021/12/31 10:55:30;;;;;;;;;;;15.10;56.70;;;;;;5095423;28;19909;-60
2021/12/31 10:57:57;;;;;;;;;;;15.10;56.80;;;;;;5094761;28;19920;-59
2021/12/31 11:00:24;;;;;;;;;;;15.20;56.80;;;;;;5095006;28;19908;-60
2021/12/31 11:02:49;;;;;;;;;;;15.10;56.70;;;;;;5095062;28;20424;-59
2021/12/31 11:05:16;;;;;;;;;;;15.10;56.80;;;;;;5095190;28;20014;-59
2021/12/31 11:07:43;;;;;;;;;;;15.10;56.80;;;;;;5094977;28;20007;-59
2021/12/31 11:10:10;;;;;;;;;;;15.10;56.80;;;;;;5095064;28;19908;-59
2021/12/31 11:12:35;;;;;;;;;;;15.10;56.70;;;;;;5094909;28;19912;-59
2021/12/31 11:15:01;;;;;;;;;;;15.10;56.80;;;;;;5094800;28;20355;-59
2021/12/31 11:17:27;;;;;;;;;;;15.10;56.80;;;;;;5094878;28;19916;-60
2021/12/31 11:19:52;;;;;;;;;;;15.10;56.70;;;;;;5094751;28;19908;-59
2021/12/31 11:22:21;;;;;;;;;;;15.10;56.90;;;;;;5094711;28;19908;-60
2021/12/31 11:24:47;;;;;;;;;;;15.10;56.70;;;;;;5094653;28;19985;-60
2021/12/31 11:27:25;;;;;;;;;;;15.10;56.80;;;;;;5076320;28;20359;-61
2021/12/31 11:29:50;;;;;;;;;;;15.10;56.80;;;;;;5094567;28;19908;-59
2021/12/31 11:32:16;;;;;;;;;;;15.10;56.90;;;;;;5094447;28;19908;-60
2021/12/31 11:34:41;;;;;;;;;;;15.10;56.90;;;;;;5094362;28;19915;-60
2021/12/31 11:37:07;;;;;;;;;;;15.10;56.90;;;;;;5094191;28;19908;-60
2021/12/31 11:39:35;;;;;;;;;;;15.10;56.80;;;;;;5094114;28;20275;-60
2021/12/31 11:42:04;;;;;;;;;;;15.10;56.90;;;;;;5094202;28;20328;-60
2021/12/31 11:44:31;;;;;;;;;;;15.10;56.80;;;;;;5094341;28;19974;-60
2021/12/31 11:47:10;;;;;;;;;;;15.10;56.90;;;;;;5094194;28;19916;-60
2021/12/31 11:49:35;;;;;;;;;;;15.10;56.80;;;;;;5094253;28;19908;-61
2021/12/31 11:52:05;;;;;;;;;;;15.10;56.80;;;;;;5094172;28;19908;-61
2021/12/31 11:54:31;;;;;;;;;;;15.10;56.80;;;;;;5094292;28;19912;-61
2021/12/31 11:56:59;;;;;;;;;;;15.10;56.80;;;;;;5093845;28;19923;-61
2021/12/31 11:59:29;;;;;;;;;;;15.10;56.80;;;;;;5094088;28;19908;-61
2021/12/31 12:02:10;;;;;;;;;;;15.10;56.80;;;;;;5093944;28;20020;-61
2021/12/31 12:04:37;;;;;;;;;;;15.10;56.70;;;;;;5094207;28;19915;-61
2021/12/31 12:07:21;;;;;;;;;;;15.10;56.80;;;;;;5093802;28;19923;-61
2021/12/31 12:09:46;;;;;;;;;;;15.20;56.70;;;;;;5093872;28;19987;-61
2021/12/31 12:12:14;;;;;;;;;;;15.20;56.70;;;;;;5093993;28;19959;-61
2021/12/31 12:14:41;;;;;;;;;;;15.20;56.70;;;;;;5093670;28;19911;-61
2021/12/31 12:17:10;;;;;;;;;;;15.20;56.70;;;;;;5093897;28;20374;-61
2021/12/31 12:19:45;;;;;;;;;;;15.20;56.70;;;;;;5093430;28;19908;-61
2021/12/31 12:22:23;;;;;;;;;;;15.20;56.60;;;;;;5075396;28;19985;-61
2021/12/31 12:24:49;;;;;;;;;;;15.20;56.70;;;;;;5093479;28;19919;-61
2021/12/31 12:27:14;;;;;;;;;;;15.20;56.60;;;;;;5093498;28;19916;-61
2021/12/31 12:29:41;;;;;;;;;;;15.20;56.70;;;;;;5093558;28;19955;-61
2021/12/31 12:32:07;;;;;;;;;;;15.20;56.60;;;;;;5093405;28;19919;-61
2021/12/31 12:34:32;;;;;;;;;;;15.20;56.80;;;;;;5093774;28;19908;-61
2021/12/31 12:36:58;;;;;;;;;;;15.20;56.70;;;;;;5093550;28;19916;-61
2021/12/31 12:39:23;;;;;;;;;;;15.20;56.70;;;;;;5093325;28;19999;-61
2021/12/31 12:41:49;;;;;;;;;;;15.20;56.70;;;;;;5093128;28;20007;-61
2021/12/31 12:44:16;;;;;;;;;;;15.20;56.60;;;;;;5093272;28;19908;-61
2021/12/31 12:46:52;;;;;;;;;;;15.20;56.70;;;;;;5093247;28;20364;-61
2021/12/31 12:49:18;;;;;;;;;;;15.20;56.70;;;;;;5097175;28;19908;-61
2021/12/31 12:51:44;;;;;;;;;;;15.20;56.70;;;;;;5097424;28;19912;-61
2021/12/31 12:54:13;;;;;;;;;;;15.20;56.60;;;;;;5097507;28;19953;-62
2021/12/31 12:56:39;;;;;;;;;;;15.20;56.60;;;;;;5097389;28;19962;-61
2021/12/31 12:59:05;;;;;;;;;;;15.20;56.50;;;;;;5097550;28;19956;-61
2021/12/31 13:01:34;;;;;;;;;;;15.20;56.50;;;;;;5097402;28;20420;-61
2021/12/31 13:04:00;;;;;;;;;;;15.20;56.60;;;;;;5079303;28;20014;-61
2021/12/31 13:06:26;;;;;;;;;;;15.20;56.60;;;;;;5097222;28;20385;-61
2021/12/31 13:09:14;;;;;;;;;;;15.30;56.60;;;;;;5097331;28;20287;-61
2021/12/31 13:11:41;;;;;;;;;;;15.20;56.60;;;;;;5097299;28;19962;-60
2021/12/31 13:14:14;;;;;;;;;;;15.20;56.60;;;;;;5097358;28;19953;-61
2021/12/31 13:16:40;;;;;;;;;;;15.30;56.60;;;;;;5097083;28;19919;-61
2021/12/31 13:19:08;;;;;;;;;;;15.20;56.60;;;;;;5096804;28;19912;-61
2021/12/31 13:21:35;;;;;;;;;;;15.30;56.60;;;;;;5097103;28;19915;-61
2021/12/31 13:24:01;;;;;;;;;;;15.30;56.60;;;;;;5096931;28;19920;-61
2021/12/31 13:26:27;;;;;;;;;;;15.20;56.50;;;;;;5097189;28;20017;-61
2021/12/31 13:28:59;;;;;;;;;;;15.20;56.50;;;;;;5096983;28;19908;-61
2021/12/31 13:31:38;;;;;;;;;;;15.30;56.60;;;;;;5096945;28;19908;-61
2021/12/31 13:34:14;;;;;;;;;;;15.30;56.50;;;;;;5096641;28;19916;-61
2021/12/31 13:36:44;;;;;;;;;;;15.30;56.60;;;;;;5097041;28;20275;-61
2021/12/31 13:39:12;;;;;;;;;;;15.30;56.60;;;;;;5097010;28;20011;-61
2021/12/31 13:41:44;;;;;;;;;;;15.30;56.50;;;;;;5096834;28;19915;-61
2021/12/31 13:44:11;;;;;;;;;;;15.30;56.50;;;;;;5078713;28;20301;-61
2021/12/31 13:46:40;;;;;;;;;;;15.30;56.60;;;;;;5096269;28;19916;-61
2021/12/31 13:49:05;;;;;;;;;;;15.30;56.60;;;;;;5096490;28;19914;-61
2021/12/31 13:51:31;;;;;;;;;;;15.30;56.60;;;;;;5096826;28;20002;-61
2021/12/31 13:53:57;;;;;;;;;;;15.20;56.60;;;;;;5077998;28;19908;-61
2021/12/31 13:56:43;;;;;;;;;;;15.20;56.70;;;;;;5096253;28;20006;-61
2021/12/31 13:59:27;;;;;;;;;;;15.20;56.70;;;;;;5095280;28;19924;-61
2021/12/31 14:02:09;;;;;;;;;;;15.20;56.70;;;;;;5096348;28;19908;-61
2021/12/31 14:04:53;;;;;;;;;;;15.20;56.70;;;;;;5096359;28;19958;-61
2021/12/31 14:07:21;;;;;;;;;;;15.20;56.70;;;;;;5095846;28;20291;-61
2021/12/31 14:09:47;;;;;;;;;;;15.20;56.70;;;;;;5077679;28;19908;-61
2021/12/31 14:12:13;;;;;;;;;;;15.20;56.80;;;;;;5077654;28;19907;-61
2021/12/31 14:14:40;;;;;;;;;;;15.20;56.80;;;;;;5095988;28;20371;-61
2021/12/31 14:17:07;;;;;;;;;;;15.20;56.80;;;;;;5095881;28;19915;-61
2021/12/31 14:19:33;;;;;;;;;;;15.20;56.90;;;;;;5095944;28;19908;-61